Time;durP1;ratioP1;P1;durP2;ratioP2;P2;SDS_P1;SDS_P2;PMS_P1;PMS_P2;Temp;Humidity;BMP_temperature;BMP_pressure;BME280_temperature;BME280_humidity;BME280_pressure;Samples;Min_cycle;Max_cycle;Signal;HPM_P1;HPM_P2
2024/03/14 00:01:31;;;;;;;0.00;0.00;;;;;;;10.70;100.00;99827.91;6161614;23;20012;-72
2024/03/14 00:03:56;;;;;;;0.00;0.00;;;;;;;10.71;100.00;99824.09;6185581;23;20015;-73
2024/03/14 00:06:22;;;;;;;0.00;0.00;;;;;;;10.67;100.00;99821.09;6184846;23;20000;-71
2024/03/14 00:08:48;;;;;;;0.00;0.00;;;;;;;10.68;100.00;99830.94;6159926;23;20031;-72
2024/03/14 00:11:13;;;;;;;0.00;0.00;;;;;;;10.67;100.00;99833.94;6184722;23;20008;-72
2024/03/14 00:13:39;;;;;;;0.00;0.00;;;;;;;10.61;100.00;99817.56;6212699;23;20008;-72
2024/03/14 00:16:05;;;;;;;0.00;0.00;;;;;;;10.60;100.00;99820.56;6205773;23;20312;-71
2024/03/14 00:18:31;;;;;;;0.00;0.00;;;;;;;10.59;100.00;99827.97;6164403;23;20014;-72
2024/03/14 00:20:57;;;;;;;0.10;0.10;;;;;;;10.58;100.00;99820.84;6238881;23;20079;-72
2024/03/14 00:23:23;;;;;;;0.00;0.00;;;;;;;10.58;100.00;99831.78;6240948;23;20454;-71
2024/03/14 00:25:51;;;;;;;0.00;0.00;;;;;;;10.54;100.00;99819.81;6161263;23;20008;-70
2024/03/14 00:28:18;;;;;;;0.00;0.00;;;;;;;10.55;100.00;99821.41;6184358;23;20396;-70
2024/03/14 00:30:44;;;;;;;0.00;0.00;;;;;;;10.55;100.00;99815.94;6234528;23;20019;-71
2024/03/14 00:33:10;;;;;;;0.00;0.00;;;;;;;10.63;100.00;99828.22;6212534;23;20003;-71
2024/03/14 00:35:35;;;;;;;0.00;0.00;;;;;;;10.61;100.00;99823.03;6208180;23;20023;-71
2024/03/14 00:38:02;;;;;;;0.00;0.00;;;;;;;10.64;100.00;99814.28;6184931;23;20355;-73
2024/03/14 00:40:28;;;;;;;0.00;0.00;;;;;;;10.52;100.00;99783.72;6235271;23;20012;-72
2024/03/14 00:42:55;;;;;;;0.00;0.00;;;;;;;10.67;100.00;99817.53;6209838;23;20087;-72
2024/03/14 00:45:20;;;;;;;0.00;0.00;;;;;;;10.67;100.00;99809.34;6185171;23;20454;-71
2024/03/14 00:47:46;;;;;;;0.00;0.00;;;;;;;10.63;100.00;99801.72;6189770;23;20079;-71
2024/03/14 00:50:13;;;;;;;0.00;0.00;;;;;;;10.67;100.00;99812.06;6212204;23;20019;-71
2024/03/14 00:52:40;;;;;;;0.00;0.00;;;;;;;10.65;100.00;99804.16;6209623;23;20007;-72
2024/03/14 00:55:07;;;;;;;0.00;0.00;;;;;;;10.59;100.00;99803.38;6185390;23;20984;-72
2024/03/14 00:57:32;;;;;;;0.00;0.00;;;;;;;10.52;100.00;99824.72;6210418;23;20004;-72
2024/03/14 00:59:58;;;;;;;0.00;0.00;;;;;;;10.42;100.00;99800.16;6209220;23;20103;-72
2024/03/14 01:02:26;;;;;;;0.00;0.00;;;;;;;10.40;100.00;99799.63;6209349;23;20004;-72
2024/03/14 01:04:54;;;;;;;0.00;0.00;;;;;;;10.33;100.00;99801.81;6184549;23;19996;-72
2024/03/14 01:07:19;;;;;;;0.00;0.00;;;;;;;10.29;100.00;99796.09;6184545;23;20083;-71
2024/03/14 01:09:45;;;;;;;0.00;0.00;;;;;;;10.29;100.00;99796.91;6183536;23;20043;-72
2024/03/14 01:12:10;;;;;;;0.00;0.00;;;;;;;10.16;100.00;99789.28;6188037;23;20004;-70
2024/03/14 01:14:35;;;;;;;0.00;0.00;;;;;;;10.07;100.00;99782.78;6186084;23;20008;-72
2024/03/14 01:17:01;;;;;;;0.00;0.00;;;;;;;9.98;100.00;99789.91;6233198;23;20012;-71
2024/03/14 01:19:27;;;;;;;0.00;0.00;;;;;;;9.91;100.00;99788.28;6183220;23;20369;-71
2024/03/14 01:21:52;;;;;;;0.00;0.00;;;;;;;9.81;100.00;99785.56;6184988;23;20008;-70
2024/03/14 01:24:19;;;;;;;0.00;0.00;;;;;;;9.64;100.00;99757.75;6210285;23;20330;-72
2024/03/14 01:26:44;;;;;;;0.00;0.00;;;;;;;9.78;100.00;99769.75;6208047;23;20339;-72
2024/03/14 01:29:10;;;;;;;0.00;0.00;;;;;;;9.89;100.00;99771.34;6211698;23;20008;-73
2024/03/14 01:31:36;;;;;;;0.00;0.00;;;;;;;9.85;100.00;99775.72;6186859;23;20008;-71
2024/03/14 01:34:01;;;;;;;0.00;0.00;;;;;;;9.81;100.00;99773.84;6181188;23;20324;-71
2024/03/14 01:36:27;;;;;;;0.00;0.00;;;;;;;9.76;100.00;99763.75;6210027;23;20008;-70
2024/03/14 01:38:53;;;;;;;0.00;0.00;;;;;;;9.67;100.00;99760.75;6181500;23;20066;-71
2024/03/14 01:41:22;;;;;;;0.00;0.00;;;;;;;9.56;100.00;99762.72;6235179;23;20011;-71
2024/03/14 01:43:58;;;;;;;0.10;0.10;;;;;;;9.42;100.00;99765.16;6205416;23;20066;-71
2024/03/14 01:46:26;;;;;;;0.00;0.00;;;;;;;9.30;100.00;99752.91;6235787;23;20003;-70
2024/03/14 01:48:54;;;;;;;0.00;0.00;;;;;;;9.19;100.00;99750.16;6207376;23;20035;-71
2024/03/14 01:51:20;;;;;;;0.00;0.00;;;;;;;9.14;100.00;99761.09;6235890;23;20008;-73
2024/03/14 01:53:45;;;;;;;0.00;0.00;;;;;;;9.07;100.00;99750.44;6234969;23;20078;-72
2024/03/14 01:56:12;;;;;;;0.00;0.00;;;;;;;9.09;100.00;99750.19;6183919;23;20024;-71
2024/03/14 01:58:40;;;;;;;0.00;0.00;;;;;;;9.06;100.00;99750.72;6161587;23;20012;-71
2024/03/14 02:01:06;;;;;;;0.00;0.00;;;;;;;9.00;100.00;99740.91;6206039;23;20026;-72
2024/03/14 02:03:32;;;;;;;0.00;0.00;;;;;;;9.08;100.00;99745.81;6188527;23;20039;-72
2024/03/14 02:06:07;;;;;;;0.00;0.00;;;;;;;9.10;100.00;99749.09;6208232;23;20007;-71
2024/03/14 02:08:34;;;;;;;0.00;0.00;;;;;;;9.07;100.00;99733.28;6213877;23;20083;-71
2024/03/14 02:11:00;;;;;;;0.00;0.00;;;;;;;9.11;100.00;99728.06;6234275;23;20315;-72
2024/03/14 02:13:25;;;;;;;0.10;0.10;;;;;;;8.99;100.00;99709.28;6186998;23;20012;-71
2024/03/14 02:15:51;;;;;;;0.00;0.00;;;;;;;9.06;100.00;99726.97;6210401;23;20095;-71
2024/03/14 02:18:17;;;;;;;0.10;0.10;;;;;;;9.08;100.00;99719.38;6209568;23;20011;-72
2024/03/14 02:20:43;;;;;;;0.00;0.00;;;;;;;9.06;100.00;99726.19;6188753;23;20012;-73
2024/03/14 02:23:09;;;;;;;0.00;0.00;;;;;;;9.01;100.00;99712.53;6210119;23;20011;-72
2024/03/14 02:25:35;;;;;;;0.00;0.00;;;;;;;9.09;100.00;99720.16;6210331;23;20008;-70
2024/03/14 02:28:02;;;;;;;0.10;0.10;;;;;;;9.18;100.00;99723.97;6214294;23;20035;-71
2024/03/14 02:30:28;;;;;;;0.00;0.00;;;;;;;9.15;100.00;99715.53;6209219;23;20016;-71
2024/03/14 02:32:53;;;;;;;0.00;0.00;;;;;;;9.07;100.00;99701.34;6212901;23;20022;-71
2024/03/14 02:35:18;;;;;;;0.00;0.00;;;;;;;9.11;100.00;99703.53;6183512;23;20343;-71
2024/03/14 02:37:44;;;;;;;0.00;0.00;;;;;;;9.10;100.00;99710.91;6187121;23;20004;-71
2024/03/14 02:40:11;;;;;;;0.10;0.10;;;;;;;9.06;100.00;99705.16;6186198;23;20045;-71
2024/03/14 02:42:37;;;;;;;0.00;0.00;;;;;;;9.06;100.00;99696.19;6211473;23;20114;-71
2024/03/14 02:45:04;;;;;;;0.00;0.00;;;;;;;9.08;100.00;99702.16;6188439;23;20035;-70
2024/03/14 02:47:29;;;;;;;0.00;0.00;;;;;;;9.13;100.00;99707.63;6207601;23;20031;-71
2024/03/14 02:49:56;;;;;;;0.00;0.00;;;;;;;9.25;100.00;99702.69;6186490;23;20529;-73
2024/03/14 02:52:22;;;;;;;0.00;0.00;;;;;;;9.38;100.00;99708.69;6181811;23;20050;-72
2024/03/14 02:54:47;;;;;;;0.00;0.00;;;;;;;9.51;100.00;99707.31;6186779;23;20016;-73
2024/03/14 02:57:13;;;;;;;0.00;0.00;;;;;;;9.58;100.00;99705.09;6209179;23;20284;-72
2024/03/14 02:59:39;;;;;;;0.00;0.00;;;;;;;9.61;100.00;99693.63;6186576;23;20074;-73
2024/03/14 03:02:10;;;;;;;0.00;0.00;;;;;;;9.61;100.00;99688.19;6187042;23;20004;-73
2024/03/14 03:04:36;;;;;;;0.00;0.00;;;;;;;9.60;100.00;99681.06;6211680;23;20004;-73
2024/03/14 03:07:05;;;;;;;0.10;0.10;;;;;;;9.48;100.00;99662.28;6182284;23;20000;-72
2024/03/14 03:09:30;;;;;;;0.00;0.00;;;;;;;9.70;100.00;99680.22;6213356;23;20091;-73
2024/03/14 03:11:57;;;;;;;0.00;0.00;;;;;;;9.74;100.00;99684.84;6189091;23;20413;-73
2024/03/14 03:14:23;;;;;;;0.00;0.00;;;;;;;9.72;100.00;99667.09;6213117;23;20004;-72
2024/03/14 03:16:49;;;;;;;0.00;0.00;;;;;;;9.75;100.00;99674.75;6213283;23;20288;-73
2024/03/14 03:19:14;;;;;;;0.00;0.00;;;;;;;9.74;100.00;99670.41;6185355;23;20027;-73
2024/03/14 03:21:40;;;;;;;0.00;0.00;;;;;;;9.77;100.00;99670.63;6183154;23;20031;-73
2024/03/14 03:24:07;;;;;;;0.00;0.00;;;;;;;9.73;100.00;99669.56;6184195;23;20103;-72
2024/03/14 03:26:36;;;;;;;0.00;0.00;;;;;;;9.72;100.00;99661.66;6213988;23;20008;-73
2024/03/14 03:29:02;;;;;;;0.00;0.00;;;;;;;9.68;100.00;99660.56;6210637;23;20431;-73
2024/03/14 03:31:28;;;;;;;0.00;0.00;;;;;;;9.66;100.00;99670.97;6209838;23;20008;-73
2024/03/14 03:33:53;;;;;;;0.00;0.00;;;;;;;9.64;100.00;99663.06;6211415;23;20036;-73
2024/03/14 03:36:22;;;;;;;0.00;0.00;;;;;;;9.53;100.00;99654.06;6210754;23;20485;-73
2024/03/14 03:38:48;;;;;;;0.10;0.10;;;;;;;9.57;100.00;99660.59;6238549;23;20011;-73
2024/03/14 03:41:13;;;;;;;0.00;0.00;;;;;;;9.57;100.00;99659.78;6208580;23;19996;-73
2024/03/14 03:43:39;;;;;;;0.00;0.00;;;;;;;9.52;100.00;99655.19;6214630;23;20038;-73
2024/03/14 03:46:06;;;;;;;0.00;0.00;;;;;;;9.50;100.00;99654.63;6183692;23;20000;-73
2024/03/14 03:48:36;;;;;;;0.00;0.00;;;;;;;9.49;100.00;99652.16;6185812;23;20016;-73
2024/03/14 03:51:01;;;;;;;0.00;0.00;;;;;;;9.45;100.00;99651.91;6184279;23;20016;-73
2024/03/14 03:53:27;;;;;;;0.00;0.00;;;;;;;9.39;100.00;99642.13;6210644;23;20032;-73
2024/03/14 03:55:52;;;;;;;0.00;0.00;;;;;;;9.42;100.00;99658.75;6184909;23;20007;-72
2024/03/14 03:58:19;;;;;;;0.00;0.00;;;;;;;9.39;100.00;99642.13;6212294;23;20501;-72
2024/03/14 04:00:45;;;;;;;0.00;0.00;;;;;;;9.45;100.00;99638.28;6187149;23;20231;-72
2024/03/14 04:03:16;;;;;;;0.00;0.00;;;;;;;9.45;100.00;99646.47;6185099;23;20011;-73
2024/03/14 04:05:42;;;;;;;0.00;0.00;;;;;;;9.46;100.00;99642.63;6212634;23;20722;-72
2024/03/14 04:08:08;;;;;;;0.00;0.00;;;;;;;9.40;100.00;99620.00;6161668;23;20011;-72
2024/03/14 04:10:34;;;;;;;0.00;0.00;;;;;;;9.45;100.00;99630.09;6182962;23;20007;-74
2024/03/14 04:13:00;;;;;;;0.10;0.10;;;;;;;9.39;100.00;99621.09;6182631;23;20034;-73
2024/03/14 04:15:28;;;;;;;0.00;0.00;;;;;;;9.44;100.00;99631.16;6215110;23;20016;-72
2024/03/14 04:17:55;;;;;;;0.00;0.00;;;;;;;9.35;100.00;99616.47;6210608;23;20012;-73
2024/03/14 04:20:23;;;;;;;0.05;0.05;;;;;;;9.37;100.00;99617.00;6160134;23;20004;-72
2024/03/14 04:22:50;;;;;;;0.00;0.00;;;;;;;9.24;100.00;99608.31;6210139;23;20047;-71
2024/03/14 04:25:17;;;;;;;0.00;0.00;;;;;;;9.20;100.00;99609.97;6238847;23;20071;-72
2024/03/14 04:27:43;;;;;;;0.00;0.00;;;;;;;9.20;100.00;99612.69;6184981;23;20460;-72
2024/03/14 04:30:17;;;;;;;0.00;0.00;;;;;;;9.05;100.00;99586.28;6185033;23;20008;-71
2024/03/14 04:32:45;;;;;;;0.00;0.00;;;;;;;9.11;100.00;99608.88;6186224;23;20315;-72
2024/03/14 04:35:11;;;;;;;0.00;0.00;;;;;;;8.97;100.00;99603.19;6184791;23;20063;-72
2024/03/14 04:37:39;;;;;;;0.00;0.00;;;;;;;8.95;100.00;99605.38;6186658;23;20008;-72
2024/03/14 04:40:12;;;;;;;0.00;0.00;;;;;;;8.88;100.00;99594.75;6181110;23;20370;-73
2024/03/14 04:42:41;;;;;;;0.00;0.00;;;;;;;8.77;100.00;99582.22;6187316;23;20015;-72
2024/03/14 04:45:11;;;;;;;0.00;0.00;;;;;;;8.83;100.00;99596.66;6231253;23;20012;-73
2024/03/14 04:47:37;;;;;;;0.00;0.00;;;;;;;8.80;100.00;99606.19;6237759;23;20071;-72
2024/03/14 04:50:09;;;;;;;0.00;0.00;;;;;;;8.78;100.00;99611.13;6179847;23;20181;-71
2024/03/14 04:52:39;;;;;;;0.10;0.10;;;;;;;8.73;100.00;99592.03;6210582;23;20104;-71
2024/03/14 04:55:08;;;;;;;0.00;0.00;;;;;;;8.70;100.00;99593.41;6185076;23;20008;-70
2024/03/14 04:57:34;;;;;;;0.00;0.00;;;;;;;8.70;100.00;99592.59;6186252;23;20091;-72
2024/03/14 05:00:11;;;;;;;0.00;0.00;;;;;;;8.77;100.00;99606.75;6210468;22;20056;-72
2024/03/14 05:02:38;;;;;;;0.00;0.00;;;;;;;8.81;100.00;99593.41;6184776;23;20028;-72
2024/03/14 05:05:05;;;;;;;0.00;0.00;;;;;;;8.86;100.00;99593.38;6210541;23;20010;-71
2024/03/14 05:07:30;;;;;;;0.00;0.00;;;;;;;9.02;100.00;99605.09;6234107;23;20008;-72
2024/03/14 05:09:55;;;;;;;0.00;0.00;;;;;;;9.01;100.00;99598.00;6188298;23;20032;-72
2024/03/14 05:12:21;;;;;;;0.00;0.00;;;;;;;9.12;100.00;99599.59;6184151;23;20011;-72
2024/03/14 05:14:46;;;;;;;0.00;0.00;;;;;;;9.16;100.00;99614.34;6209628;23;20083;-72
2024/03/14 05:17:12;;;;;;;0.00;0.00;;;;;;;9.16;100.00;99606.16;6158951;23;20143;-72
2024/03/14 05:19:38;;;;;;;0.00;0.00;;;;;;;9.13;100.00;99595.00;6162478;23;20382;-72
2024/03/14 05:22:04;;;;;;;0.00;0.00;;;;;;;9.10;100.00;99601.81;6185601;23;20000;-73
2024/03/14 05:24:30;;;;;;;0.00;0.00;;;;;;;9.10;100.00;99590.91;6209396;23;20062;-73
2024/03/14 05:26:56;;;;;;;0.00;0.00;;;;;;;9.17;100.00;99596.88;6187047;23;20004;-73
2024/03/14 05:29:21;;;;;;;0.00;0.00;;;;;;;9.18;100.00;99587.59;6206848;23;20027;-72
2024/03/14 05:31:47;;;;;;;0.00;0.00;;;;;;;9.23;100.00;99592.22;6185146;23;20099;-72
2024/03/14 05:34:15;;;;;;;0.00;0.00;;;;;;;9.20;100.00;99590.88;6183759;23;20019;-71
2024/03/14 05:36:40;;;;;;;0.00;0.00;;;;;;;9.17;100.00;99585.97;6187427;23;20150;-71
2024/03/14 05:39:06;;;;;;;0.00;0.00;;;;;;;9.22;100.00;99594.13;6158742;23;20078;-72
2024/03/14 05:41:32;;;;;;;0.00;0.00;;;;;;;9.18;100.00;99586.78;6185386;23;20008;-71
2024/03/14 05:43:57;;;;;;;0.00;0.00;;;;;;;9.23;100.00;99589.50;6160079;23;20062;-71
2024/03/14 05:46:32;;;;;;;0.00;0.00;;;;;;;9.14;100.00;99581.06;6209811;23;20004;-71
2024/03/14 05:48:57;;;;;;;;;;;;;;;9.17;100.00;99602.34;6211235;23;20087;-72
2024/03/14 05:51:23;;;;;;;0.00;0.00;;;;;;;9.08;100.00;99584.88;6184568;23;20287;-72
2024/03/14 05:53:48;;;;;;;0.00;0.00;;;;;;;8.91;100.00;99561.47;6208943;23;20292;-72
2024/03/14 05:56:15;;;;;;;0.00;0.00;;;;;;;9.09;100.00;99575.63;6208916;23;20004;-72
2024/03/14 05:58:44;;;;;;;0.00;0.00;;;;;;;9.06;100.00;99587.09;6183861;23;20008;-71
2024/03/14 06:01:13;;;;;;;0.00;0.00;;;;;;;9.00;100.00;99577.28;6209274;23;20051;-71
2024/03/14 06:03:42;;;;;;;0.00;0.00;;;;;;;8.88;100.00;99562.03;6210864;23;20011;-71
2024/03/14 06:06:08;;;;;;;0.00;0.00;;;;;;;8.89;100.00;99574.59;6236731;23;20435;-72
2024/03/14 06:08:33;;;;;;;0.00;0.00;;;;;;;8.82;100.00;99568.59;6159555;23;20012;-71
2024/03/14 06:10:58;;;;;;;0.00;0.00;;;;;;;8.80;100.00;99570.75;6184446;23;20031;-72
2024/03/14 06:13:26;;;;;;;0.00;0.00;;;;;;;8.73;100.00;99578.41;6159654;23;20004;-72
2024/03/14 06:15:55;;;;;;;0.03;0.03;;;;;;;8.69;100.00;99558.25;6234978;23;20008;-72
2024/03/14 06:18:21;;;;;;;0.00;0.00;;;;;;;8.61;100.00;99561.53;6186324;23;20016;-73
2024/03/14 06:20:47;;;;;;;0.00;0.00;;;;;;;8.59;100.00;99563.72;6158898;23;20100;-73
2024/03/14 06:23:14;;;;;;;0.00;0.00;;;;;;;8.59;100.00;99571.91;6185883;23;20116;-72
2024/03/14 06:25:40;;;;;;;0.00;0.00;;;;;;;8.60;100.00;99559.88;6185509;23;20004;-73
2024/03/14 06:28:06;;;;;;;0.00;0.00;;;;;;;8.59;100.00;99558.28;6184136;23;20012;-73
2024/03/14 06:30:32;;;;;;;0.00;0.00;;;;;;;8.61;100.00;99556.09;6236577;23;20309;-72
2024/03/14 06:32:58;;;;;;;0.00;0.00;;;;;;;8.71;100.00;99566.97;6211838;23;20391;-73
2024/03/14 06:35:23;;;;;;;0.00;0.00;;;;;;;8.74;100.00;99564.50;6185502;23;20004;-73
2024/03/14 06:37:53;;;;;;;0.00;0.00;;;;;;;8.81;100.00;99563.41;6183102;23;20094;-72
2024/03/14 06:40:19;;;;;;;0.00;0.00;;;;;;;8.83;100.00;99570.22;6237289;23;20335;-72
2024/03/14 06:42:49;;;;;;;0.00;0.00;;;;;;;8.84;100.00;99562.88;6210094;23;20091;-73
2024/03/14 06:45:19;;;;;;;0.00;0.00;;;;;;;8.73;100.00;99538.34;6187241;23;20012;-75
2024/03/14 06:47:47;;;;;;;0.00;0.00;;;;;;;8.64;100.00;99520.91;6236271;23;20004;-72
2024/03/14 06:50:14;;;;;;;0.00;0.00;;;;;;;8.74;100.00;99539.16;6187674;23;20000;-72
2024/03/14 06:52:40;;;;;;;0.00;0.00;;;;;;;8.73;100.00;99537.50;6210806;23;20036;-72
2024/03/14 06:55:12;;;;;;;0.00;0.00;;;;;;;8.68;100.00;99529.38;6214439;23;20016;-74
2024/03/14 06:57:39;;;;;;;0.00;0.00;;;;;;;8.73;100.00;99537.50;6238661;23;20058;-73
2024/03/14 07:00:17;;;;;;;0.00;0.00;;;;;;;8.78;100.00;99555.78;6187077;23;20076;-75
2024/03/14 07:02:46;;;;;;;0.00;0.00;;;;;;;8.87;100.00;99554.94;6165862;23;20028;-75
2024/03/14 07:05:18;;;;;;;0.00;0.00;;;;;;;8.95;100.00;99556.31;6240635;23;20099;-72
2024/03/14 07:07:44;;;;;;;0.00;0.00;;;;;;;8.97;100.00;99547.84;6188776;23;20059;-72
2024/03/14 07:10:26;;;;;;;0.00;0.00;;;;;;;9.07;100.00;99554.06;6210710;23;20078;-71
2024/03/14 07:13:27;;;;;;;0.00;0.00;;;;;;;9.11;100.00;99558.97;6176141;23;20031;-72
2024/03/14 07:15:53;;;;;;;0.00;0.00;;;;;;;9.15;100.00;99554.59;6238395;23;20087;-72
2024/03/14 07:18:18;;;;;;;0.00;0.00;;;;;;;9.21;100.00;99554.31;6185451;23;20038;-72
2024/03/14 07:20:45;;;;;;;0.00;0.00;;;;;;;9.26;100.00;99556.22;6158409;23;20065;-72
2024/03/14 07:23:11;;;;;;;0.00;0.00;;;;;;;9.35;100.00;99542.81;6234296;23;20431;-75
2024/03/14 07:25:40;;;;;;;0.00;0.00;;;;;;;9.37;100.00;99544.13;6236186;23;20008;-75
2024/03/14 07:28:12;;;;;;;0.00;0.00;;;;;;;9.44;100.00;99546.56;6209022;23;20486;-77
2024/03/14 07:30:41;;;;;;;0.00;0.00;;;;;;;9.47;100.00;99540.56;6210898;23;20008;-76
2024/03/14 07:33:06;;;;;;;0.00;0.00;;;;;;;9.43;100.00;99531.28;6211593;23;20036;-75
2024/03/14 07:35:34;;;;;;;0.00;0.00;;;;;;;9.51;100.00;99549.00;6213431;23;20070;-75
2024/03/14 07:38:04;;;;;;;0.00;0.00;;;;;;;9.44;100.00;99541.13;6186401;23;20083;-76
2024/03/14 07:40:32;;;;;;;0.00;0.00;;;;;;;9.53;100.00;99544.88;6213859;23;20000;-77
2024/03/14 07:42:58;;;;;;;0.00;0.00;;;;;;;9.54;100.00;99546.53;6215437;23;20083;-78
2024/03/14 07:45:23;;;;;;;0.00;0.00;;;;;;;9.65;100.00;99539.13;6164008;23;20450;-78
2024/03/14 07:47:52;;;;;;;0.00;0.00;;;;;;;9.75;100.00;99546.41;6187274;23;20450;-77
2024/03/14 07:50:17;;;;;;;0.00;0.00;;;;;;;9.74;100.00;99539.34;6215729;23;20007;-76
2024/03/14 07:52:45;;;;;;;0.00;0.00;;;;;;;9.82;100.00;99538.72;6239354;23;20335;-75
2024/03/14 07:55:10;;;;;;;0.00;0.00;;;;;;;9.83;100.00;99540.38;6240407;22;20018;-78
2024/03/14 07:57:36;;;;;;;0.00;0.00;;;;;;;9.89;100.00;99547.44;6161845;23;20012;-79
2024/03/14 08:00:16;;;;;;;0.00;0.00;;;;;;;9.89;100.00;99541.97;6238758;22;20031;-79
2024/03/14 08:02:42;;;;;;;0.00;0.00;;;;;;;9.87;100.00;99516.03;6213316;23;20015;-78
2024/03/14 08:05:21;;;;;;;;;;;;;;;;;;;;;
2024/03/14 08:07:48;;;;;;;0.00;0.00;;;;;;;9.91;100.00;99512.44;6240036;23;20087;-77
2024/03/14 08:10:39;;;;;;;0.00;0.00;;;;;;;9.92;100.00;99511.34;6210649;23;19996;-77
2024/03/14 08:13:26;;;;;;;0.00;0.00;;;;;;;10.03;100.00;99533.13;6208694;23;20030;-78
2024/03/14 08:15:52;;;;;;;0.00;0.00;;;;;;;10.05;100.00;99525.47;6165258;23;20065;-77
2024/03/14 08:18:33;;;;;;;0.00;0.00;;;;;;;10.09;100.00;99538.28;6185328;23;20474;-76
2024/03/14 08:20:59;;;;;;;0.10;0.10;;;;;;;10.09;100.00;99532.81;6186861;23;20008;-77
2024/03/14 08:23:27;;;;;;;0.00;0.00;;;;;;;10.19;100.00;99542.03;6186149;23;20671;-78
2024/03/14 08:25:55;;;;;;;0.00;0.00;;;;;;;10.22;100.00;99536.81;6184674;23;20067;-77
2024/03/14 08:28:20;;;;;;;0.00;0.00;;;;;;;10.36;100.00;99544.41;6189211;23;20008;-78
2024/03/14 08:30:46;;;;;;;0.00;0.00;;;;;;;10.33;100.00;99531.28;6187110;23;20423;-78
2024/03/14 08:33:12;;;;;;;0.00;0.00;;;;;;;10.53;100.00;99539.31;6186876;23;20011;-78
2024/03/14 08:35:42;;;;;;;0.00;0.00;;;;;;;10.79;100.00;99552.72;6212837;23;20004;-78
2024/03/14 08:38:15;;;;;;;0.00;0.00;;;;;;;10.68;100.00;99529.34;6212354;23;20039;-78
2024/03/14 08:40:41;;;;;;;0.00;0.00;;;;;;;10.63;100.00;99520.09;6189785;23;20015;-77
2024/03/14 08:43:07;;;;;;;0.00;0.00;;;;;;;10.65;100.00;99520.59;6236832;23;20015;-77
2024/03/14 08:45:35;;;;;;;0.00;0.00;;;;;;;10.65;100.00;99537.00;6189200;23;20008;-77
2024/03/14 08:48:01;;;;;;;0.00;0.00;;;;;;;10.71;100.00;99542.44;6157297;23;20012;-77
2024/03/14 08:50:26;;;;;;;0.00;0.00;;;;;;;10.71;100.00;99524.09;6188892;23;20019;-78
2024/03/14 08:52:55;;;;;;;0.00;0.00;;;;;;;10.97;100.00;99538.31;6184789;23;20036;-78
2024/03/14 08:55:29;;;;;;;0.05;0.05;;;;;;;11.10;100.00;99536.81;6212321;23;20067;-78
2024/03/14 08:57:59;;;;;;;0.00;0.00;;;;;;;11.17;100.00;99536.50;6226844;23;20004;-77
2024/03/14 09:00:34;;;;;;;0.00;0.00;;;;;;;11.54;100.00;99545.88;6162142;23;20351;-77
2024/03/14 09:03:04;;;;;;;0.00;0.00;;;;;;;11.79;100.00;99543.91;6234089;23;20012;-78
2024/03/14 09:05:30;;;;;;;0.00;0.00;;;;;;;11.83;100.00;99543.00;6211913;23;20011;-78
2024/03/14 09:07:59;;;;;;;0.00;0.00;;;;;;;11.74;100.00;99530.25;6188096;23;20008;-77
2024/03/14 09:10:33;;;;;;;0.00;0.00;;;;;;;11.66;100.00;99512.56;6214009;23;20008;-78
2024/03/14 09:12:59;;;;;;;0.00;0.00;;;;;;;11.87;100.00;99537.75;6189688;23;20008;-77
2024/03/14 09:15:27;;;;;;;0.00;0.00;;;;;;;11.89;100.00;99530.06;6212041;23;20011;-76
2024/03/14 09:17:59;;;;;;;0.00;0.00;;;;;;;11.91;100.00;99522.34;6185962;23;20032;-77
2024/03/14 09:20:28;;;;;;;0.00;0.00;;;;;;;11.93;100.00;99517.44;6188710;23;20212;-77
2024/03/14 09:22:55;;;;;;;0.00;0.00;;;;;;;11.99;100.00;99529.13;6237478;23;20488;-77
2024/03/14 09:25:26;;;;;;;0.00;0.00;;;;;;;11.86;100.00;99519.69;6240861;23;20000;-78
2024/03/14 09:27:53;;;;;;;0.00;0.00;;;;;;;11.73;100.00;99510.28;6185943;23;20008;-77
2024/03/14 09:30:19;;;;;;;0.00;0.00;;;;;;;11.82;100.00;99518.66;6214493;23;20089;-78
2024/03/14 09:32:45;;;;;;;0.00;0.00;;;;;;;11.87;100.00;99524.03;6185246;23;20012;-78
2024/03/14 09:35:14;;;;;;;0.00;0.00;;;;;;;11.91;100.00;99521.53;6187995;23;20095;-76
2024/03/14 09:37:39;;;;;;;0.00;0.00;;;;;;;11.86;100.00;99508.75;6211285;23;20008;-75
2024/03/14 09:40:05;;;;;;;0.00;0.00;;;;;;;11.96;100.00;99508.63;6211813;23;20012;-77
2024/03/14 09:42:34;;;;;;;0.00;0.00;;;;;;;12.04;100.00;99505.19;6212765;23;20007;-78
2024/03/14 09:45:03;;;;;;;0.00;0.00;;;;;;;12.24;100.00;99492.28;6210911;23;20331;-77
2024/03/14 09:47:45;;;;;;;0.00;0.00;;;;;;;12.55;100.00;99481.56;6189013;23;20001;-77
2024/03/14 09:50:17;;;;;;;0.00;0.00;;;;;;;13.01;100.00;99471.66;6235536;23;20016;-78
2024/03/14 09:52:43;;;;;;;0.00;0.00;;;;;;;13.41;100.00;99480.16;6213645;23;20004;-77
2024/03/14 09:55:12;;;;;;;0.00;0.00;;;;;;;13.86;99.57;99473.94;6211879;23;20015;-78
2024/03/14 09:57:38;;;;;;;0.00;0.00;;;;;;;14.43;95.77;99486.31;6212738;23;20044;-76
2024/03/14 10:00:08;;;;;;;0.10;0.10;;;;;;;15.47;92.77;99496.13;6233846;23;20020;-77
2024/03/14 10:02:35;;;;;;;0.00;0.00;;;;;;;16.59;85.64;99488.16;6240005;23;20000;-77
2024/03/14 10:05:01;;;;;;;0.00;0.00;;;;;;;17.31;81.02;99482.00;6239387;23;20004;-78
2024/03/14 10:07:29;;;;;;;0.00;0.00;;;;;;;19.33;75.50;99484.44;6211521;23;20015;-79
2024/03/14 10:09:55;;;;;;;0.00;0.00;;;;;;;22.31;60.07;99484.84;6237815;23;20004;-78
2024/03/14 10:12:21;;;;;;;0.00;0.00;;;;;;;24.30;51.46;99475.59;6213837;23;20096;-77
2024/03/14 10:15:12;;;;;;;0.00;0.00;;;;;;;23.65;49.27;99487.91;6187593;23;20046;-79
2024/03/14 10:17:42;;;;;;;0.00;0.00;;;;;;;21.56;52.20;99462.66;6215778;23;20004;-79
2024/03/14 10:20:12;;;;;;;0.00;0.00;;;;;;;19.57;56.87;99477.25;6212476;22;20023;-77
2024/03/14 10:22:43;;;;;;;0.00;0.00;;;;;;;17.67;63.72;99470.38;6238463;23;20075;-77
2024/03/14 10:25:23;;;;;;;0.00;0.00;;;;;;;16.66;68.56;99468.31;6240665;23;20015;-78
2024/03/14 10:27:50;;;;;;;0.00;0.00;;;;;;;15.89;73.53;99457.91;6215066;23;20082;-77
2024/03/14 10:30:18;;;;;;;0.00;0.00;;;;;;;15.34;76.71;99460.13;6215240;23;20018;-79
2024/03/14 10:32:47;;;;;;;0.00;0.00;;;;;;;14.97;78.93;99462.31;6238709;23;20058;-79
2024/03/14 10:35:14;;;;;;;0.00;0.00;;;;;;;14.93;80.92;99453.06;6239989;23;20016;-78
2024/03/14 10:37:48;;;;;;;0.00;0.00;;;;;;;15.07;81.72;99439.19;6240488;23;20389;-78
2024/03/14 10:40:27;;;;;;;0.00;0.00;;;;;;;16.00;80.81;99439.09;6193432;23;20004;-79
2024/03/14 10:42:53;;;;;;;0.00;0.00;;;;;;;19.21;68.60;99438.13;6171095;23;20004;-79
2024/03/14 10:45:21;;;;;;;0.00;0.00;;;;;;;22.07;53.65;99419.97;6236255;23;20053;-78
2024/03/14 10:47:50;;;;;;;0.00;0.00;;;;;;;24.31;47.12;99426.94;6216391;23;20459;-77
2024/03/14 10:50:17;;;;;;;0.00;0.00;;;;;;;26.88;39.12;99421.44;6189083;23;20015;-79
2024/03/14 10:52:50;;;;;;;0.00;0.00;;;;;;;28.02;36.17;99422.38;6215498;23;20015;-78
2024/03/14 10:55:21;;;;;;;0.00;0.00;;;;;;;28.31;35.14;99438.28;6210043;23;20434;-78
2024/03/14 10:57:48;;;;;;;0.00;0.00;;;;;;;27.22;36.15;99421.03;6241929;23;20008;-77
2024/03/14 11:00:17;;;;;;;0.00;0.00;;;;;;;26.01;37.23;99406.53;6213223;23;20184;-78
2024/03/14 11:02:46;;;;;;;0.00;0.00;;;;;;;24.78;39.75;99421.78;6226285;23;20008;-79
2024/03/14 11:05:12;;;;;;;0.00;0.00;;;;;;;26.39;37.73;99415.41;6243145;23;20327;-80
2024/03/14 11:07:41;;;;;;;0.00;0.00;;;;;;;28.29;33.63;99393.72;6212902;23;20022;-77
2024/03/14 11:10:27;;;;;;;0.00;0.00;;;;;;;29.14;32.74;99401.06;6185878;23;20094;-76
2024/03/14 11:13:01;;;;;;;0.00;0.00;;;;;;;30.00;31.14;99402.91;6212453;23;20008;-77
2024/03/14 11:15:28;;;;;;;0.00;0.00;;;;;;;30.46;29.56;99393.00;6212280;23;20003;-77
2024/03/14 11:17:59;;;;;;;0.00;0.00;;;;;;;30.50;29.96;99375.22;6240476;23;20079;-79
2024/03/14 11:20:32;;;;;;;0.00;0.00;;;;;;;31.63;27.60;99379.19;6212088;23;20008;-77
2024/03/14 11:23:01;;;;;;;0.00;0.00;;;;;;;29.91;29.56;99402.63;6211799;23;20087;-78
2024/03/14 11:25:28;;;;;;;0.00;0.00;;;;;;;30.06;29.91;99370.19;6213318;23;20229;-78
2024/03/14 11:27:57;;;;;;;0.00;0.00;;;;;;;28.92;30.93;99373.13;6188215;23;20007;-78
2024/03/14 11:30:26;;;;;;;0.00;0.00;;;;;;;29.65;30.62;99385.22;6215194;23;20069;-77
2024/03/14 11:32:55;;;;;;;0.00;0.00;;;;;;;27.95;31.69;99371.81;6191165;23;20058;-78
2024/03/14 11:35:47;;;;;;;0.00;0.00;;;;;;;28.55;31.83;99363.41;6238673;23;20086;-78